createdAt,value
2022-12-04T00:02:10.928Z,56.20
2022-12-04T00:07:12.482Z,58.38
2022-12-04T00:12:14.026Z,60.47
2022-12-04T00:17:15.626Z,56.58
2022-12-04T00:22:17.093Z,55.63
2022-12-04T00:27:18.642Z,55.88
2022-12-04T00:32:20.165Z,58.03
2022-12-04T00:37:21.747Z,48.33
2022-12-04T00:42:23.263Z,56.22
2022-12-04T00:47:24.869Z,54.13
2022-12-04T00:52:28.319Z,56.65
2022-12-04T00:57:29.855Z,57.08
2022-12-04T01:02:31.615Z,54.80
2022-12-04T01:07:33.225Z,51.65
2022-12-04T01:12:35.001Z,57.60
2022-12-04T01:17:36.928Z,55.85
2022-12-04T01:22:38.486Z,53.67
2022-12-04T01:27:39.972Z,56.70
2022-12-04T01:32:41.579Z,58.80
2022-12-04T01:37:43.121Z,49.08
2022-12-04T01:42:44.636Z,57.58
2022-12-04T01:47:46.332Z,59.03
2022-12-04T01:52:47.982Z,59.25
2022-12-04T01:57:49.449Z,59.33
2022-12-04T02:02:51.089Z,58.63
2022-12-04T02:07:57.607Z,57.92
2022-12-04T02:13:07.303Z,58.35
2022-12-04T02:18:12.625Z,54.35
2022-12-04T02:23:20.906Z,50.53
2022-12-04T02:28:38.553Z,56.08
2022-12-04T02:33:52.488Z,65.03
2022-12-04T02:39:06.943Z,60.38
2022-12-04T02:44:17.564Z,63.33
2022-12-04T02:49:25.245Z,62.00
2022-12-04T02:54:41.403Z,80.93
2022-12-04T02:59:45.511Z,63.45
2022-12-04T03:04:50.796Z,66.05
2022-12-04T03:09:56.639Z,67.65
2022-12-04T03:15:02.979Z,67.65
2022-12-04T03:20:10.930Z,64.53
2022-12-04T03:25:13.892Z,68.45
2022-12-04T03:30:21.845Z,66.20
2022-12-04T03:35:29.464Z,61.65
2022-12-04T03:40:54.203Z,64.75
2022-12-04T03:46:08.534Z,68.30
2022-12-04T03:51:47.488Z,65.28
2022-12-04T03:56:53.280Z,68.22
2022-12-04T04:01:59.589Z,67.07
2022-12-04T04:07:37.947Z,63.97
2022-12-04T04:13:11.593Z,66.35
2022-12-04T04:18:31.711Z,67.32
2022-12-04T04:24:05.065Z,44.78
2022-12-04T04:29:06.519Z,68.78
2022-12-04T04:34:29.261Z,62.05
2022-12-04T04:39:45.560Z,59.17
2022-12-04T04:45:02.210Z,72.55
2022-12-04T04:50:07.080Z,63.70
2022-12-04T04:55:09.415Z,67.63
2022-12-04T05:00:14.888Z,67.72
2022-12-04T05:05:18.566Z,63.20
2022-12-04T05:10:20.045Z,64.60
2022-12-04T05:15:21.565Z,70.40
2022-12-04T05:20:23.093Z,62.90
2022-12-04T05:25:25.323Z,63.15
2022-12-04T05:30:26.858Z,68.57
2022-12-04T05:35:28.354Z,65.53
2022-12-04T05:40:29.833Z,66.18
2022-12-04T05:45:31.312Z,59.80
2022-12-04T05:50:32.771Z,67.80
2022-12-04T05:55:34.355Z,66.35
2022-12-04T06:00:36.031Z,70.78
2022-12-04T06:05:37.529Z,70.60
2022-12-04T06:10:39.179Z,65.15
2022-12-04T06:15:40.994Z,67.97
2022-12-04T06:20:42.758Z,69.75
2022-12-04T06:25:44.740Z,74.65
2022-12-04T06:30:46.247Z,68.43
2022-12-04T06:35:47.719Z,66.60
2022-12-04T06:40:49.258Z,65.03
2022-12-04T06:46:01.031Z,62.97
2022-12-04T06:51:06.911Z,65.90
2022-12-04T06:56:11.399Z,68.50
2022-12-04T07:01:17.533Z,66.75
2022-12-04T07:06:29.008Z,60.90
2022-12-04T07:11:30.796Z,68.97
2022-12-04T07:16:39.889Z,69.07
2022-12-04T07:21:43.115Z,69.30
2022-12-04T07:26:45.327Z,71.82
2022-12-04T07:31:46.856Z,78.60
2022-12-04T07:36:48.349Z,76.15
2022-12-04T07:41:50.449Z,71.78
2022-12-04T07:46:51.955Z,74.45
2022-12-04T07:51:53.427Z,61.88
2022-12-04T07:56:55.079Z,72.82
2022-12-04T08:01:56.648Z,63.92
2022-12-04T08:06:58.244Z,70.15
2022-12-04T08:11:59.715Z,71.63
2022-12-04T08:17:01.243Z,69.68
2022-12-04T08:22:02.845Z,71.22
2022-12-04T08:27:04.420Z,54.63
2022-12-04T08:32:06.116Z,67.40
2022-12-04T08:37:07.712Z,65.38
2022-12-04T08:42:09.200Z,63.25
2022-12-04T08:47:10.795Z,60.45
2022-12-04T08:52:12.327Z,55.40
2022-12-04T08:57:13.827Z,64.00
2022-12-04T09:02:16.739Z,61.80
2022-12-04T09:07:18.232Z,58.20
2022-12-04T09:12:19.803Z,54.25
2022-12-04T09:17:21.319Z,54.67
2022-12-04T09:22:23.600Z,51.63
2022-12-04T09:27:26.009Z,53.67
2022-12-04T09:32:27.573Z,41.90
2022-12-04T09:37:29.101Z,51.45
2022-12-04T09:42:58.801Z,46.38
2022-12-04T09:48:01.765Z,49.45
2022-12-04T09:53:10.084Z,49.78
2022-12-04T09:58:23.687Z,43.05
2022-12-04T10:03:28.324Z,40.28
2022-12-04T10:08:37.625Z,37.63
2022-12-04T10:14:03.311Z,33.67
2022-12-04T10:19:34.187Z,38.60
2022-12-04T10:24:38.310Z,37.70
2022-12-04T10:29:43.374Z,40.75
2022-12-04T10:34:46.125Z,41.00
2022-12-04T10:40:09.873Z,42.65
2022-12-04T10:45:12.811Z,42.55
2022-12-04T10:50:17.184Z,43.58
2022-12-04T10:55:35.823Z,39.83
2022-12-04T11:00:37.354Z,41.33
2022-12-04T11:05:46.363Z,49.55
2022-12-04T11:10:59.201Z,121.30
2022-12-04T11:16:00.890Z,41.78
2022-12-04T11:21:07.481Z,46.80
2022-12-04T11:26:10.025Z,39.17
2022-12-04T11:31:22.293Z,48.60
2022-12-04T11:36:41.499Z,43.33
2022-12-04T11:41:43.332Z,42.90
2022-12-04T11:46:55.869Z,43.08
2022-12-04T11:52:27.968Z,47.58
2022-12-04T11:57:51.576Z,45.55
2022-12-04T12:03:16.475Z,52.88
2022-12-04T12:08:41.468Z,57.42
2022-12-04T12:14:08.568Z,69.43
2022-12-04T12:19:31.532Z,52.30
2022-12-04T12:25:11.969Z,59.97
2022-12-04T12:30:20.474Z,72.85
2022-12-04T12:35:29.852Z,58.25
2022-12-04T12:40:43.033Z,66.07
2022-12-04T12:45:47.589Z,74.88
2022-12-04T12:51:14.754Z,68.18
2022-12-04T12:56:18.083Z,58.13
2022-12-04T13:01:24.540Z,60.00
2022-12-04T13:06:35.982Z,58.40
2022-12-04T13:11:38.629Z,57.28
2022-12-04T13:16:48.390Z,52.40
2022-12-04T13:22:04.660Z,59.95
2022-12-04T13:27:17.697Z,59.63
2022-12-04T13:32:37.956Z,70.70
2022-12-04T13:38:17.966Z,42.83
2022-12-04T13:43:27.631Z,35.65
2022-12-04T13:48:40.188Z,39.95
2022-12-04T13:53:43.579Z,34.20
2022-12-04T13:58:45.174Z,33.33
2022-12-04T14:03:50.504Z,33.75
2022-12-04T14:08:58.404Z,31.35
2022-12-04T14:19:30.046Z,31.30
2022-12-04T14:24:39.312Z,31.52
2022-12-04T14:29:52.120Z,30.30
2022-12-04T14:34:55.054Z,23.70
2022-12-04T14:39:58.533Z,25.80
2022-12-04T14:45:02.495Z,29.05
2022-12-04T14:50:20.641Z,26.77
2022-12-04T15:00:34.292Z,24.80
2022-12-04T15:05:35.766Z,28.45
2022-12-04T15:10:57.356Z,29.50
2022-12-04T15:16:09.065Z,24.13
2022-12-04T15:21:11.619Z,24.05
2022-12-04T15:26:18.761Z,20.35
2022-12-04T15:31:47.052Z,24.17
2022-12-04T15:42:24.676Z,19.57
2022-12-04T15:47:30.877Z,23.17
2022-12-04T15:52:32.502Z,25.05
2022-12-04T15:57:49.763Z,18.95
2022-12-04T16:02:51.623Z,20.93
2022-12-04T16:07:58.911Z,20.60
2022-12-04T16:13:03.944Z,22.48
2022-12-04T16:18:07.259Z,21.40
2022-12-04T16:23:09.559Z,27.27
2022-12-04T16:28:11.019Z,24.30
2022-12-04T16:33:15.731Z,24.00
2022-12-04T16:38:17.814Z,25.05
2022-12-04T16:43:19.479Z,29.30
2022-12-04T16:48:21.189Z,27.60
2022-12-04T16:53:22.889Z,28.60
2022-12-04T16:58:24.455Z,31.35
2022-12-04T17:03:31.072Z,28.52
2022-12-04T17:08:33.083Z,33.58
2022-12-04T17:13:34.551Z,39.20
2022-12-04T17:18:36.106Z,35.22
2022-12-04T17:23:37.666Z,36.03
2022-12-04T17:28:39.784Z,39.17
2022-12-04T17:33:43.476Z,37.75
2022-12-04T17:38:44.977Z,42.05
2022-12-04T17:43:46.949Z,43.90
2022-12-04T17:48:49.179Z,39.35
2022-12-04T17:53:51.413Z,42.30
2022-12-04T17:58:53.705Z,45.53
2022-12-04T18:04:01.795Z,40.17
2022-12-04T18:09:05.056Z,41.33
2022-12-04T18:14:14.049Z,34.95
2022-12-04T18:19:15.541Z,36.25
2022-12-04T18:24:17.900Z,41.83
2022-12-04T18:29:22.292Z,35.25
2022-12-04T18:34:23.771Z,40.22
2022-12-04T18:39:25.836Z,36.47
2022-12-04T18:44:27.462Z,33.90
2022-12-04T18:49:28.968Z,39.70
2022-12-04T18:54:30.433Z,42.03
2022-12-04T18:59:33.022Z,39.60
2022-12-04T19:04:34.647Z,38.20
2022-12-04T19:10:09.374Z,36.63
2022-12-04T19:14:57.679Z,37.58
2022-12-04T19:19:59.530Z,37.53
2022-12-04T19:25:01.668Z,39.88
2022-12-04T19:30:04.225Z,42.50
2022-12-04T19:35:05.967Z,36.95
2022-12-04T19:40:07.874Z,40.85
2022-12-04T19:45:09.717Z,40.05
2022-12-04T19:50:11.461Z,39.15
2022-12-04T19:55:13.211Z,37.92
2022-12-04T20:00:14.878Z,39.58
2022-12-04T20:05:16.393Z,40.55
2022-12-04T20:10:18.032Z,33.58
2022-12-04T20:15:19.632Z,34.05
2022-12-04T20:20:21.150Z,32.30
2022-12-04T20:25:22.720Z,35.42
2022-12-04T20:30:24.301Z,40.20
2022-12-04T20:35:25.851Z,43.33
2022-12-04T20:40:27.339Z,42.83
2022-12-04T20:45:30.152Z,45.03
2022-12-04T20:50:32.165Z,43.40
2022-12-04T20:55:33.607Z,42.00
2022-12-04T21:00:35.210Z,42.95
2022-12-04T21:05:36.708Z,40.90
2022-12-04T21:10:38.285Z,38.50
2022-12-04T21:15:58.269Z,38.10
2022-12-04T21:21:01.721Z,34.42
2022-12-04T21:26:03.518Z,37.28
2022-12-04T21:31:06.253Z,31.92
2022-12-04T21:36:09.725Z,33.35
2022-12-04T21:41:31.600Z,32.63
2022-12-04T21:46:33.206Z,30.95
2022-12-04T21:56:57.720Z,42.78
2022-12-04T22:02:01.168Z,36.15
2022-12-04T22:07:02.884Z,37.63
2022-12-04T22:12:20.264Z,35.67
2022-12-04T22:17:29.542Z,40.63
2022-12-04T22:22:31.087Z,37.13
2022-12-04T22:27:32.536Z,39.35
2022-12-04T22:32:34.316Z,39.08
2022-12-04T22:37:41.117Z,37.05
2022-12-04T22:42:45.592Z,39.10
2022-12-04T22:47:47.128Z,39.53
2022-12-04T22:52:48.674Z,41.33
2022-12-04T22:57:50.172Z,38.50
2022-12-04T23:02:51.816Z,37.38
2022-12-04T23:07:53.456Z,37.33
2022-12-04T23:12:54.968Z,36.75
2022-12-04T23:17:56.500Z,37.45
2022-12-04T23:22:59.300Z,39.05
2022-12-04T23:28:00.886Z,37.00
2022-12-04T23:33:02.422Z,38.30
2022-12-04T23:38:03.990Z,36.05
2022-12-04T23:43:05.540Z,36.53
2022-12-04T23:48:07.080Z,37.42
2022-12-04T23:53:08.549Z,34.83
2022-12-04T23:58:10.071Z,32.88
